createdAt,value
2023-01-13T05:38:30.962Z,7.00
2023-01-13T05:39:31.944Z,7.60
2023-01-13T05:40:31.986Z,7.30
2023-01-13T05:41:31.909Z,6.80
2023-01-13T05:42:31.909Z,7.20
2023-01-13T05:43:31.930Z,7.40
2023-01-13T05:44:31.870Z,7.10
2023-01-13T05:45:31.870Z,6.50
2023-01-13T05:46:31.856Z,7.00
2023-01-13T05:47:31.848Z,6.90
2023-01-13T05:48:31.835Z,7.50
2023-01-13T06:13:02.667Z,6.50
2023-01-13T06:14:03.631Z,6.40
2023-01-13T06:15:03.613Z,7.00
2023-01-13T06:16:03.640Z,6.30
2023-01-13T06:17:03.580Z,6.40
2023-01-13T09:06:02.190Z,4.70
2023-01-13T09:07:03.367Z,4.50
2023-01-13T11:48:28.015Z,4.70
2023-01-13T11:49:28.983Z,5.10
2023-01-13T11:50:28.964Z,4.70
2023-01-13T11:51:28.971Z,5.60
2023-01-13T11:52:28.941Z,4.70
2023-01-13T14:41:42.543Z,6.20
2023-01-13T14:42:43.519Z,5.80
2023-01-13T14:43:43.488Z,7.10
2023-01-13T14:44:43.493Z,9.80
2023-01-13T14:54:07.647Z,5.80
2023-01-13T14:55:08.609Z,6.50
2023-01-13T14:56:08.633Z,6.90
2023-01-13T15:03:08.718Z,3.10
2023-01-13T15:04:09.623Z,4.00
2023-01-13T15:05:09.646Z,4.00
2023-01-13T15:06:09.593Z,5.60
2023-01-13T15:07:09.594Z,4.70
2023-01-13T15:08:09.598Z,5.90
2023-01-13T15:43:26.445Z,5.50
2023-01-13T15:44:27.425Z,6.20
2023-01-13T15:45:27.413Z,6.00
2023-01-13T15:46:27.467Z,6.20
2023-01-13T15:47:28.078Z,5.90
2023-01-13T15:48:27.380Z,5.70
2023-01-13T16:06:57.197Z,5.00
2023-01-13T16:07:58.166Z,4.80
2023-01-13T16:08:58.159Z,4.60
2023-01-13T16:09:58.157Z,4.30
2023-01-13T16:10:58.179Z,5.00
2023-01-13T16:11:58.164Z,5.00
2023-01-13T16:12:58.113Z,5.70
2023-01-13T16:13:58.115Z,6.50
2023-01-13T16:14:58.084Z,6.10
2023-01-13T16:15:58.106Z,8.40
2023-01-13T16:16:58.134Z,9.60
2023-01-13T16:17:58.104Z,7.60
2023-01-13T16:18:58.141Z,5.70
2023-01-13T16:19:58.113Z,5.00
2023-01-13T16:20:58.027Z,4.40
2023-01-13T16:21:58.033Z,5.80
2023-01-13T16:22:58.007Z,5.20
2023-01-13T16:23:58.014Z,5.20
2023-01-13T16:24:58.011Z,5.60
2023-01-13T16:25:58.023Z,5.90
2023-01-13T16:26:58.217Z,6.00
2023-01-13T16:27:58.011Z,6.90
2023-01-13T16:28:58.022Z,5.70
2023-01-13T16:29:57.995Z,5.40
2023-01-13T16:30:57.939Z,4.60
2023-01-13T16:31:57.943Z,5.30
2023-01-13T16:32:57.916Z,6.60
2023-01-13T16:33:57.959Z,4.70
2023-01-13T16:34:59.741Z,4.50
2023-01-13T16:36:11.865Z,4.50
2023-01-13T16:36:57.926Z,5.60
2023-01-13T16:40:31.309Z,5.30
2023-01-13T16:41:31.950Z,3.90
2023-01-13T16:42:31.835Z,3.80
2023-01-13T18:06:11.619Z,9.00
2023-01-13T18:41:52.406Z,6.90
2023-01-13T20:16:09.444Z,8.00
2023-01-13T20:17:27.433Z,7.90
2023-01-13T20:24:50.189Z,7.50
2023-01-13T21:20:54.300Z,5.50
2023-01-13T21:21:55.309Z,5.60
2023-01-13T21:22:55.266Z,5.50
2023-01-13T21:23:55.235Z,6.40
2023-01-13T21:24:55.229Z,6.60
2023-01-13T23:05:49.011Z,6.90
2023-01-13T23:06:49.965Z,6.80
2023-01-13T23:07:49.954Z,7.00
2023-01-13T23:08:49.959Z,7.60
2023-01-13T23:09:49.932Z,8.00
2023-01-13T23:10:49.907Z,9.10
2023-01-13T23:11:49.959Z,10.10
2023-01-13T23:12:49.880Z,10.30
2023-01-13T23:13:49.917Z,9.20
2023-01-13T23:14:49.877Z,10.20
2023-01-13T23:15:49.856Z,8.60
2023-01-13T23:16:49.856Z,7.90
2023-01-13T23:17:49.839Z,7.90
2023-01-13T23:18:49.845Z,7.50
2023-01-13T23:19:49.815Z,7.60
2023-01-13T23:20:49.808Z,6.50
2023-01-13T23:21:49.800Z,7.30
2023-01-13T23:22:49.809Z,6.20
2023-01-13T23:23:49.781Z,6.90
2023-01-13T23:24:49.747Z,6.20
2023-01-13T23:25:49.752Z,6.70
2023-01-13T23:26:49.727Z,6.90
2023-01-13T23:27:49.767Z,7.70
2023-01-13T23:28:49.747Z,8.80
2023-01-13T23:29:49.707Z,14.40
2023-01-13T23:30:49.719Z,16.00
2023-01-13T23:31:49.688Z,15.70
2023-01-13T23:32:49.658Z,15.20
2023-01-13T23:33:49.660Z,14.40
2023-01-13T23:34:49.669Z,11.60
2023-01-13T23:35:49.637Z,9.70
2023-01-13T23:36:49.652Z,8.30
2023-01-13T23:37:49.660Z,8.50
2023-01-13T23:38:49.597Z,8.50
2023-01-13T23:39:49.860Z,8.10
2023-01-13T23:40:49.570Z,9.50
2023-01-13T23:41:49.607Z,8.90
2023-01-13T23:42:49.582Z,7.70
